Time;durP1;ratioP1;P1;durP2;ratioP2;P2;SDS_P1;SDS_P2;PMS_P1;PMS_P2;Temp;Humidity;BMP_temperature;BMP_pressure;BME280_temperature;BME280_humidity;BME280_pressure;Samples;Min_cycle;Max_cycle;Signal;HPM_P1;HPM_P2
2020/12/22 00:00:35;;;;;;;1.73;1.33;;;13.70;99.90;;;;;;5095462;28;20205;-86
2020/12/22 00:03:01;;;;;;;2.05;1.40;;;13.70;99.90;;;;;;5095309;28;20222;-86
2020/12/22 00:05:28;;;;;;;1.70;1.60;;;13.80;99.90;;;;;;5095208;28;20189;-86
2020/12/22 00:07:55;;;;;;;1.85;1.30;;;13.80;99.90;;;;;;5094926;28;20212;-86
2020/12/22 00:10:21;;;;;;;1.60;1.50;;;13.90;99.90;;;;;;5095523;28;20291;-86
2020/12/22 00:12:47;;;;;;;1.50;1.40;;;13.90;99.90;;;;;;5094816;28;20196;-86
2020/12/22 00:15:13;;;;;;;1.90;1.50;;;13.80;99.90;;;;;;5094656;28;20287;-88
2020/12/22 00:17:42;;;;;;;8.15;1.70;;;13.90;99.90;;;;;;5094871;28;20201;-86
2020/12/22 00:20:09;;;;;;;2.22;2.03;;;13.80;99.90;;;;;;5094907;28;20194;-86
2020/12/22 00:22:35;;;;;;;3.05;1.00;;;13.90;99.90;;;;;;5094622;28;20204;-85
2020/12/22 00:25:02;;;;;;;1.52;1.42;;;14.10;99.90;;;;;;5094877;28;20205;-86
2020/12/22 00:27:32;;;;;;;1.50;1.20;;;14.00;99.90;;;;;;5094583;28;20209;-86
2020/12/22 00:29:59;;;;;;;6.15;1.60;;;13.90;99.90;;;;;;5094802;28;20197;-86
2020/12/22 00:32:25;;;;;;;2.33;1.20;;;14.00;99.90;;;;;;5094932;28;20225;-86
2020/12/22 00:34:51;;;;;;;1.35;1.13;;;14.00;99.90;;;;;;5094509;28;20221;-86
2020/12/22 00:37:18;;;;;;;1.77;1.20;;;14.00;99.90;;;;;;5094646;28;20189;-86
2020/12/22 00:39:44;;;;;;;1.10;0.95;;;14.10;99.90;;;;;;5094293;28;20197;-86
2020/12/22 00:42:11;;;;;;;1.40;1.23;;;14.10;99.90;;;;;;5094596;28;20246;-86
2020/12/22 00:44:37;;;;;;;2.50;1.10;;;14.10;99.90;;;;;;5094263;28;20251;-86
2020/12/22 00:47:03;;;;;;;1.20;1.02;;;14.20;99.90;;;;;;5094455;28;20250;-86
2020/12/22 00:49:29;;;;;;;1.20;0.98;;;14.30;99.90;;;;;;5094258;28;20717;-86
2020/12/22 00:51:58;;;;;;;1.70;1.10;;;14.40;99.90;;;;;;5094358;28;20205;-86
2020/12/22 00:54:25;;;;;;;1.90;1.30;;;14.40;99.90;;;;;;5093899;28;20260;-86
2020/12/22 00:56:51;;;;;;;1.88;1.40;;;14.30;99.90;;;;;;5094014;28;20225;-86
2020/12/22 00:59:18;;;;;;;1.50;1.10;;;14.30;99.90;;;;;;5094363;28;20197;-86
2020/12/22 01:01:44;;;;;;;1.55;1.00;;;14.40;99.90;;;;;;5093837;28;20247;-86
2020/12/22 01:04:11;;;;;;;1.63;1.30;;;14.30;99.90;;;;;;5093828;28;20282;-85
2020/12/22 01:06:38;;;;;;;1.90;1.00;;;14.40;99.90;;;;;;5094258;28;20197;-85
2020/12/22 01:09:04;;;;;;;2.60;1.33;;;14.30;99.90;;;;;;5094230;28;20614;-86
2020/12/22 01:11:34;;;;;;;2.40;1.15;;;14.30;99.90;;;;;;5093937;28;20657;-86
2020/12/22 01:14:00;;;;;;;1.70;1.15;;;14.30;99.90;;;;;;5093541;28;20214;-86
2020/12/22 01:16:27;;;;;;;3.17;1.20;;;14.30;99.90;;;;;;5093834;28;20924;-86
2020/12/22 01:18:53;;;;;;;1.42;1.23;;;14.40;99.90;;;;;;5093820;28;20545;-87
2020/12/22 01:21:20;;;;;;;1.40;1.00;;;14.40;99.90;;;;;;5094045;28;20582;-85
2020/12/22 01:23:46;;;;;;;1.25;0.90;;;14.50;99.90;;;;;;5093523;28;20246;-86
2020/12/22 01:26:12;;;;;;;1.10;0.95;;;14.50;99.90;;;;;;5093736;28;20194;-85
2020/12/22 01:28:38;;;;;;;2.45;1.10;;;14.50;99.90;;;;;;5093723;28;20205;-85
2020/12/22 01:31:05;;;;;;;1.73;1.30;;;14.60;99.90;;;;;;5093929;28;20578;-86
2020/12/22 01:33:32;;;;;;;1.10;1.00;;;14.60;99.90;;;;;;5093498;28;20217;-86
2020/12/22 01:35:58;;;;;;;1.48;1.30;;;14.60;99.90;;;;;;5093591;28;20205;-85
2020/12/22 01:38:24;;;;;;;1.60;0.95;;;14.50;99.90;;;;;;5093626;28;20194;-85
2020/12/22 01:40:50;;;;;;;2.17;1.20;;;14.60;99.90;;;;;;5093739;28;20227;-86
2020/12/22 01:43:17;;;;;;;1.52;1.00;;;14.60;99.90;;;;;;5093312;28;20535;-85
2020/12/22 01:45:43;;;;;;;1.90;1.20;;;14.70;99.90;;;;;;5093639;28;20193;-86
2020/12/22 01:48:10;;;;;;;1.13;1.00;;;14.70;99.90;;;;;;5093590;28;20201;-85
2020/12/22 01:50:37;;;;;;;1.63;0.98;;;14.70;99.90;;;;;;5093651;28;20553;-86
2020/12/22 01:53:04;;;;;;;1.30;1.10;;;14.80;99.90;;;;;;5093165;28;20688;-86
2020/12/22 01:55:30;;;;;;;1.35;1.10;;;14.80;99.90;;;;;;5093561;28;20200;-86
2020/12/22 01:57:56;;;;;;;2.05;1.25;;;14.70;99.90;;;;;;5093278;28;20225;-85
2020/12/22 02:00:22;;;;;;;1.48;1.00;;;14.60;99.90;;;;;;5093671;28;20204;-86
2020/12/22 02:02:48;;;;;;;1.10;1.00;;;14.60;99.90;;;;;;5093151;28;20217;-85
2020/12/22 02:05:15;;;;;;;1.60;1.05;;;14.60;99.90;;;;;;5093220;28;20232;-86
2020/12/22 02:07:42;;;;;;;2.00;1.00;;;14.60;99.90;;;;;;5093322;28;20198;-85
2020/12/22 02:10:08;;;;;;;1.10;1.00;;;14.60;99.90;;;;;;5093269;28;20194;-85
2020/12/22 02:12:40;;;;;;;1.30;1.10;;;14.60;99.90;;;;;;5093303;28;20209;-85
2020/12/22 02:15:06;;;;;;;1.65;1.02;;;14.70;99.90;;;;;;5097157;28;20635;-85
2020/12/22 02:17:32;;;;;;;1.00;0.90;;;14.80;99.90;;;;;;5097167;28;20194;-85
2020/12/22 02:19:58;;;;;;;1.50;1.10;;;14.80;99.90;;;;;;5097015;28;20713;-86
2020/12/22 02:22:25;;;;;;;2.40;1.50;;;14.80;99.90;;;;;;5097173;28;20194;-86
2020/12/22 02:24:51;;;;;;;1.67;1.00;;;14.90;99.90;;;;;;5097051;28;20194;-85
2020/12/22 02:27:18;;;;;;;1.20;1.02;;;15.00;99.90;;;;;;5097254;28;20556;-86
2020/12/22 02:29:44;;;;;;;1.05;0.90;;;15.00;99.90;;;;;;5096997;28;20198;-85
2020/12/22 02:32:10;;;;;;;1.58;1.10;;;14.90;99.90;;;;;;5096936;28;20190;-86
2020/12/22 02:34:36;;;;;;;1.40;0.90;;;15.10;99.90;;;;;;5096748;28;20675;-85
2020/12/22 02:37:03;;;;;;;1.48;0.90;;;15.20;99.90;;;;;;5097042;28;20196;-85
2020/12/22 02:39:30;;;;;;;1.85;1.15;;;15.20;99.90;;;;;;5096745;28;20194;-85
2020/12/22 02:41:56;;;;;;;3.78;1.20;;;15.30;99.90;;;;;;5096570;28;20648;-85
2020/12/22 02:44:22;;;;;;;2.57;0.93;;;15.40;99.90;;;;;;5096619;28;20201;-85
2020/12/22 02:46:48;;;;;;;1.30;1.00;;;15.30;99.90;;;;;;5096685;28;20451;-84
2020/12/22 02:49:14;;;;;;;1.65;1.55;;;15.30;99.90;;;;;;5096671;28;20197;-85
2020/12/22 02:51:41;;;;;;;3.78;1.25;;;15.30;99.90;;;;;;5096453;28;20198;-85
2020/12/22 02:54:07;;;;;;;1.27;1.00;;;15.40;99.90;;;;;;5096756;28;20221;-85
2020/12/22 02:56:34;;;;;;;1.85;1.13;;;15.40;99.90;;;;;;5096228;28;20619;-84
2020/12/22 02:59:00;;;;;;;1.38;0.80;;;15.40;99.90;;;;;;5096455;28;20200;-85
2020/12/22 03:01:26;;;;;;;1.20;0.90;;;15.30;99.90;;;;;;5096274;28;20200;-84
2020/12/22 03:03:52;;;;;;;1.70;0.98;;;15.50;99.90;;;;;;5096246;28;20642;-84
2020/12/22 03:06:19;;;;;;;1.63;0.90;;;15.40;99.90;;;;;;5096359;28;20193;-85
2020/12/22 03:08:45;;;;;;;1.20;1.00;;;15.40;99.90;;;;;;5096170;28;20198;-85
2020/12/22 03:11:11;;;;;;;1.83;0.93;;;15.40;99.90;;;;;;5096198;28;20194;-85
2020/12/22 03:13:38;;;;;;;1.52;1.02;;;15.40;99.90;;;;;;5096031;28;20217;-85
2020/12/22 03:16:04;;;;;;;3.75;1.00;;;15.40;99.90;;;;;;5096141;28;20200;-85
2020/12/22 03:18:30;;;;;;;1.65;1.10;;;15.50;99.90;;;;;;5095878;28;20198;-85
2020/12/22 03:20:57;;;;;;;3.00;1.10;;;15.50;99.90;;;;;;5095950;28;20190;-85
2020/12/22 03:23:23;;;;;;;1.30;0.80;;;15.60;99.90;;;;;;5095850;28;20557;-85
2020/12/22 03:25:49;;;;;;;1.20;1.10;;;15.50;99.90;;;;;;5095581;28;20439;-85
2020/12/22 03:28:15;;;;;;;1.30;0.98;;;15.60;99.90;;;;;;5095804;28;20517;-85
2020/12/22 03:30:42;;;;;;;1.20;1.00;;;15.70;99.90;;;;;;5096018;28;20250;-85
2020/12/22 03:33:08;;;;;;;2.07;1.00;;;15.70;99.90;;;;;;5095933;28;20251;-85
2020/12/22 03:35:34;;;;;;;2.03;1.00;;;15.70;99.90;;;;;;5095580;28;20483;-85
2020/12/22 03:38:02;;;;;;;1.80;1.30;;;15.80;99.90;;;;;;5095691;28;20448;-85
2020/12/22 03:40:28;;;;;;;1.10;0.80;;;15.80;99.90;;;;;;5095765;28;20501;-85
2020/12/22 03:42:54;;;;;;;1.30;0.90;;;15.70;99.90;;;;;;5095799;28;20432;-85
2020/12/22 03:45:21;;;;;;;1.67;0.90;;;15.70;99.90;;;;;;5095439;28;20448;-85
2020/12/22 03:47:48;;;;;;;1.70;0.90;;;15.80;99.90;;;;;;5095623;28;20424;-85
2020/12/22 03:50:14;;;;;;;5.00;1.10;;;16.00;99.90;;;;;;5095568;28;20432;-86
2020/12/22 03:52:40;;;;;;;1.40;0.90;;;15.90;99.90;;;;;;5095323;28;20436;-85
2020/12/22 03:55:07;;;;;;;2.30;1.00;;;15.90;99.90;;;;;;5095311;28;20487;-85
2020/12/22 03:57:33;;;;;;;1.30;1.00;;;15.80;99.90;;;;;;5095234;28;20832;-85
2020/12/22 03:59:59;;;;;;;1.83;1.20;;;15.80;99.90;;;;;;5095419;28;20530;-85
2020/12/22 04:02:25;;;;;;;1.40;1.20;;;16.00;99.90;;;;;;5095269;28;20463;-85
2020/12/22 04:04:52;;;;;;;1.60;1.27;;;16.10;99.90;;;;;;5095029;28;20439;-85
2020/12/22 04:07:21;;;;;;;1.30;1.20;;;16.00;99.90;;;;;;5095171;28;20428;-84
2020/12/22 04:09:47;;;;;;;2.57;1.60;;;16.00;99.90;;;;;;5094972;28;20443;-85
2020/12/22 04:12:13;;;;;;;1.17;1.07;;;16.00;99.90;;;;;;5094801;28;20790;-85
2020/12/22 04:14:39;;;;;;;1.90;1.63;;;16.10;99.90;;;;;;5094824;28;20868;-85
2020/12/22 04:17:06;;;;;;;1.20;1.07;;;16.20;99.90;;;;;;5094967;28;20443;-85
2020/12/22 04:19:32;;;;;;;1.20;1.10;;;16.10;99.90;;;;;;5094812;28;20436;-85
2020/12/22 04:21:59;;;;;;;1.40;1.30;;;16.10;99.90;;;;;;5094879;28;20439;-85
2020/12/22 04:24:25;;;;;;;3.40;1.40;;;16.20;99.90;;;;;;5094836;28;20428;-84
2020/12/22 04:26:51;;;;;;;1.43;1.33;;;16.20;99.90;;;;;;5094680;28;20828;-85
2020/12/22 04:29:17;;;;;;;1.77;1.67;;;16.20;99.90;;;;;;5094825;28;20945;-85
2020/12/22 04:31:44;;;;;;;1.70;1.20;;;16.20;99.90;;;;;;5094916;28;20436;-85
2020/12/22 04:34:10;;;;;;;1.80;1.13;;;16.20;99.90;;;;;;5094820;28;20475;-85
2020/12/22 04:36:36;;;;;;;1.40;1.20;;;16.10;99.90;;;;;;5093916;28;20439;-85
2020/12/22 04:39:04;;;;;;;1.40;1.30;;;16.10;99.90;;;;;;5094691;28;20436;-85
2020/12/22 04:41:32;;;;;;;1.57;1.47;;;16.00;99.90;;;;;;5094616;28;20456;-85
2020/12/22 04:43:59;;;;;;;2.20;1.50;;;16.20;99.90;;;;;;5094430;28;20464;-85
2020/12/22 04:46:27;;;;;;;1.83;1.73;;;16.30;99.90;;;;;;5094493;28;20443;-85
2020/12/22 04:48:55;;;;;;;1.43;1.20;;;16.30;99.90;;;;;;5094234;28;20443;-85
2020/12/22 04:51:22;;;;;;;1.60;1.50;;;16.20;99.90;;;;;;5094317;28;20800;-85
2020/12/22 04:53:49;;;;;;;1.30;1.20;;;16.20;99.90;;;;;;5093876;28;20792;-85
2020/12/22 04:56:18;;;;;;;2.17;1.50;;;16.40;99.90;;;;;;5094034;28;20471;-84
2020/12/22 04:58:45;;;;;;;1.70;1.60;;;16.40;99.90;;;;;;5094279;28;20436;-85
2020/12/22 05:01:11;;;;;;;3.00;1.83;;;16.40;99.90;;;;;;5094217;28;20489;-84
2020/12/22 05:03:37;;;;;;;1.40;1.30;;;16.30;99.90;;;;;;5093701;28;20459;-85
2020/12/22 05:06:03;;;;;;;2.50;1.30;;;16.30;99.90;;;;;;5093967;28;20572;-85
2020/12/22 05:08:30;;;;;;;1.80;1.37;;;16.30;99.90;;;;;;5094029;28;20443;-85
2020/12/22 05:10:56;;;;;;;1.63;1.40;;;16.20;99.90;;;;;;5093832;28;20497;-86
2020/12/22 05:13:23;;;;;;;1.40;1.30;;;16.10;99.90;;;;;;5093585;28;20808;-85
2020/12/22 05:15:51;;;;;;;1.30;1.20;;;16.30;99.90;;;;;;5093974;28;20440;-84
2020/12/22 05:18:20;;;;;;;1.67;1.30;;;16.50;99.90;;;;;;5093659;28;20428;-85
2020/12/22 05:20:48;;;;;;;1.80;1.13;;;16.40;99.90;;;;;;5093757;28;20438;-85
2020/12/22 05:23:16;;;;;;;1.50;1.40;;;16.50;99.90;;;;;;5093497;28;20977;-85
2020/12/22 05:25:44;;;;;;;3.13;1.43;;;16.50;99.90;;;;;;5093821;28;20440;-85
2020/12/22 05:28:13;;;;;;;1.70;1.10;;;16.50;99.90;;;;;;5093990;28;20435;-85
2020/12/22 05:30:40;;;;;;;1.20;1.10;;;16.40;99.90;;;;;;5093859;28;20440;-85
2020/12/22 05:33:07;;;;;;;1.10;1.00;;;16.50;99.90;;;;;;5093648;28;20502;-84
2020/12/22 05:35:44;;;;;;;1.10;1.00;;;16.50;99.90;;;;;;5093780;28;20480;-85
2020/12/22 05:38:11;;;;;;;1.73;1.00;;;16.40;99.90;;;;;;5093699;28;20447;-84
2020/12/22 05:40:40;;;;;;;1.47;1.37;;;16.30;99.90;;;;;;5093580;28;20946;-85
2020/12/22 05:43:07;;;;;;;1.50;1.30;;;16.40;99.90;;;;;;5093435;28;20443;-85
2020/12/22 05:45:35;;;;;;;1.20;1.00;;;16.50;99.90;;;;;;5093524;28;20444;-85
2020/12/22 05:48:04;;;;;;;1.30;1.20;;;16.40;99.90;;;;;;5094375;28;20795;-86
2020/12/22 05:50:32;;;;;;;1.30;0.97;;;16.40;99.90;;;;;;5097941;28;20444;-84
2020/12/22 05:52:59;;;;;;;1.37;1.27;;;16.40;99.90;;;;;;5097677;28;20455;-85
2020/12/22 05:55:27;;;;;;;4.10;1.23;;;16.50;99.90;;;;;;5097541;28;20487;-85
2020/12/22 05:58:09;;;;;;;1.30;1.07;;;16.50;99.90;;;;;;5097278;28;20475;-85
2020/12/22 06:00:39;;;;;;;1.37;1.20;;;16.50;99.90;;;;;;5097726;28;20443;-85
2020/12/22 06:03:08;;;;;;;1.50;1.40;;;16.40;99.90;;;;;;5097278;28;20467;-84
2020/12/22 06:05:39;;;;;;;1.33;1.20;;;16.50;99.90;;;;;;5097422;28;20446;-85
2020/12/22 06:08:07;;;;;;;8.53;1.37;;;16.50;99.90;;;;;;5097552;28;20789;-85
2020/12/22 06:10:35;;;;;;;1.13;1.03;;;16.50;99.90;;;;;;5097256;28;20606;-85
2020/12/22 06:13:02;;;;;;;1.50;1.20;;;16.40;99.90;;;;;;5096943;28;20964;-85
2020/12/22 06:15:28;;;;;;;1.10;1.00;;;16.40;99.90;;;;;;5097028;28;20483;-84
2020/12/22 06:17:55;;;;;;;1.43;1.13;;;16.40;99.90;;;;;;5097113;28;20443;-85
2020/12/22 06:20:23;;;;;;;2.13;1.40;;;16.50;99.90;;;;;;5097280;28;20457;-85
2020/12/22 06:22:50;;;;;;;1.50;1.40;;;16.50;99.90;;;;;;5096864;28;20443;-84
2020/12/22 06:25:20;;;;;;;2.40;1.70;;;16.50;99.90;;;;;;5097120;28;20488;-85
2020/12/22 06:27:47;;;;;;;2.27;2.17;;;16.30;99.90;;;;;;5097040;28;20439;-85
2020/12/22 06:30:14;;;;;;;1.80;1.70;;;16.20;99.90;;;;;;5097280;28;20439;-85
2020/12/22 06:32:40;;;;;;;2.20;1.90;;;16.20;99.90;;;;;;5096770;28;20463;-85
2020/12/22 06:35:31;;;;;;;1.80;1.70;;;16.30;99.90;;;;;;5097181;28;20483;-85
2020/12/22 06:37:58;;;;;;;2.27;2.07;;;16.30;99.90;;;;;;5097163;28;20440;-85
2020/12/22 06:40:51;;;;;;;1.90;1.70;;;16.40;99.90;;;;;;5096573;28;20473;-86
2020/12/22 06:43:42;;;;;;;1.60;1.50;;;16.20;99.90;;;;;;5094538;28;20451;-85
2020/12/22 06:46:10;;;;;;;1.97;1.70;;;16.20;99.90;;;;;;5096600;28;21005;-84
2020/12/22 06:48:46;;;;;;;2.03;1.93;;;16.20;99.90;;;;;;5096689;28;20448;-85
2020/12/22 06:51:22;;;;;;;5.30;1.90;;;16.00;99.90;;;;;;5096780;28;20444;-85
2020/12/22 06:53:49;;;;;;;1.70;1.60;;;16.10;99.90;;;;;;5096157;28;20431;-85
2020/12/22 06:56:35;;;;;;;3.77;1.70;;;16.20;99.90;;;;;;5096190;28;20482;-85
2020/12/22 06:59:01;;;;;;;2.53;2.33;;;16.40;99.90;;;;;;5095646;28;20435;-84
2020/12/22 07:01:32;;;;;;;2.00;1.77;;;16.40;99.90;;;;;;5096561;28;20446;-85
2020/12/22 07:04:16;;;;;;;1.90;1.80;;;16.30;99.90;;;;;;5096039;28;20434;-85
2020/12/22 07:06:56;;;;;;;2.50;1.90;;;16.30;99.90;;;;;;5096279;28;20808;-85
2020/12/22 07:09:25;;;;;;;2.97;2.17;;;16.10;99.90;;;;;;5096218;28;20440;-84
2020/12/22 07:11:53;;;;;;;1.63;1.53;;;16.00;99.90;;;;;;5095994;28;20942;-84
2020/12/22 07:14:21;;;;;;;2.13;1.93;;;15.90;99.90;;;;;;5096145;28;20491;-84
2020/12/22 07:16:51;;;;;;;2.03;1.90;;;16.00;99.90;;;;;;5096070;28;20450;-84
2020/12/22 07:19:22;;;;;;;2.07;1.83;;;16.20;99.90;;;;;;5095984;28;20809;-84
2020/12/22 07:21:50;;;;;;;2.40;2.20;;;16.40;99.90;;;;;;5095940;28;20440;-85
2020/12/22 07:24:17;;;;;;;2.03;1.70;;;16.40;99.90;;;;;;5095579;28;20432;-85
2020/12/22 07:26:44;;;;;;;2.63;1.87;;;16.50;99.90;;;;;;5095862;28;20435;-85
2020/12/22 07:29:10;;;;;;;2.40;1.53;;;16.40;99.90;;;;;;5095887;28;20443;-85
2020/12/22 07:31:37;;;;;;;2.17;1.50;;;16.10;99.90;;;;;;5095813;28;20435;-84
2020/12/22 07:34:04;;;;;;;1.70;1.50;;;16.20;99.90;;;;;;5095850;28;20479;-85
2020/12/22 07:36:31;;;;;;;1.50;1.40;;;16.20;99.90;;;;;;5096004;28;20938;-84
2020/12/22 07:39:11;;;;;;;3.00;1.33;;;16.40;99.90;;;;;;5095740;28;20443;-85
2020/12/22 07:41:38;;;;;;;1.20;1.10;;;16.40;99.90;;;;;;5095447;28;20439;-85
2020/12/22 07:44:08;;;;;;;1.30;1.20;;;16.40;99.90;;;;;;5095745;28;20444;-84
2020/12/22 07:46:35;;;;;;;1.47;1.20;;;16.30;99.90;;;;;;5095531;28;20443;-84
2020/12/22 07:49:05;;;;;;;1.27;1.17;;;16.30;99.90;;;;;;5095484;28;20930;-84
2020/12/22 07:51:32;;;;;;;2.13;1.20;;;16.20;99.90;;;;;;5095477;28;20432;-85
2020/12/22 07:54:05;;;;;;;3.30;1.43;;;16.30;99.90;;;;;;5095125;28;20470;-84
2020/12/22 07:56:33;;;;;;;1.50;1.37;;;16.30;99.90;;;;;;5094929;28;20468;-84
2020/12/22 07:59:04;;;;;;;1.50;1.40;;;16.40;99.90;;;;;;5095431;28;20459;-84
2020/12/22 08:01:31;;;;;;;2.70;1.67;;;16.20;99.90;;;;;;5095136;28;20436;-85
2020/12/22 08:03:57;;;;;;;1.40;1.30;;;16.40;99.90;;;;;;5094877;28;20443;-84
2020/12/22 08:06:24;;;;;;;3.60;1.43;;;16.20;99.90;;;;;;5095065;28;20950;-84
2020/12/22 08:09:00;;;;;;;1.87;1.77;;;16.40;99.90;;;;;;5094996;28;20440;-84
2020/12/22 08:11:26;;;;;;;3.57;1.40;;;16.30;99.90;;;;;;5094121;28;20964;-84
2020/12/22 08:13:54;;;;;;;2.07;1.50;;;16.30;99.90;;;;;;5094722;28;20440;-84
2020/12/22 08:16:21;;;;;;;2.27;1.10;;;16.40;99.90;;;;;;5095001;28;20436;-84
2020/12/22 08:18:49;;;;;;;1.97;1.30;;;16.50;99.90;;;;;;5094819;28;20436;-85
2020/12/22 08:21:19;;;;;;;2.37;1.33;;;16.50;99.90;;;;;;5094887;28;20440;-84
2020/12/22 08:23:47;;;;;;;1.80;1.70;;;16.50;99.90;;;;;;5094756;28;20439;-84
2020/12/22 08:26:17;;;;;;;2.60;1.30;;;16.40;99.90;;;;;;5094727;28;20431;-85
2020/12/22 08:28:55;;;;;;;1.67;1.57;;;16.50;99.90;;;;;;5094697;28;20448;-85
2020/12/22 08:31:23;;;;;;;2.17;1.30;;;16.40;99.90;;;;;;5094859;28;20439;-84
2020/12/22 08:33:55;;;;;;;1.60;1.30;;;16.40;99.90;;;;;;5094538;28;20451;-84
2020/12/22 08:36:22;;;;;;;2.17;1.17;;;16.40;99.90;;;;;;5094187;28;20435;-84
2020/12/22 08:38:48;;;;;;;1.93;1.30;;;16.50;99.90;;;;;;5094564;28;20440;-85
2020/12/22 08:41:17;;;;;;;1.60;1.40;;;16.50;99.90;;;;;;5094626;28;20440;-84
2020/12/22 08:43:48;;;;;;;2.60;1.50;;;16.40;99.90;;;;;;5094483;28;20442;-84
2020/12/22 08:46:15;;;;;;;1.83;0.97;;;16.30;99.90;;;;;;5094205;28;20440;-85
2020/12/22 08:48:41;;;;;;;8.17;1.47;;;16.40;99.90;;;;;;5094301;28;20770;-84
2020/12/22 08:51:08;;;;;;;1.07;0.90;;;16.20;99.90;;;;;;5094386;28;20439;-84
2020/12/22 08:53:36;;;;;;;1.90;1.40;;;16.20;99.90;;;;;;5093933;28;20445;-84
2020/12/22 08:56:06;;;;;;;1.90;1.57;;;16.40;99.90;;;;;;5093803;28;20483;-84
2020/12/22 08:58:32;;;;;;;1.60;1.50;;;16.40;99.90;;;;;;5094151;28;20435;-85
2020/12/22 09:01:00;;;;;;;2.20;1.27;;;16.30;99.90;;;;;;5094095;28;20806;-84
2020/12/22 09:03:28;;;;;;;1.60;1.47;;;16.20;99.90;;;;;;5094066;28;20998;-84
2020/12/22 09:05:54;;;;;;;1.70;1.60;;;16.20;99.90;;;;;;5093810;28;20471;-84
2020/12/22 09:08:20;;;;;;;2.27;1.50;;;16.20;99.90;;;;;;5093907;28;20444;-84
2020/12/22 09:10:47;;;;;;;3.03;1.80;;;16.20;99.90;;;;;;5093196;28;20942;-84
2020/12/22 09:13:15;;;;;;;1.70;1.60;;;16.20;99.90;;;;;;5093731;28;20439;-84
2020/12/22 09:15:52;;;;;;;2.90;2.10;;;16.10;99.90;;;;;;5093718;28;21054;-84
2020/12/22 09:18:18;;;;;;;4.70;2.63;;;16.10;99.90;;;;;;5093674;28;20438;-84
2020/12/22 09:21:01;;;;;;;2.03;1.40;;;16.30;99.90;;;;;;5093669;28;20436;-85
2020/12/22 09:23:27;;;;;;;1.40;1.30;;;16.40;99.90;;;;;;5093516;28;20938;-84
2020/12/22 09:25:53;;;;;;;1.60;1.00;;;16.40;99.90;;;;;;5093833;28;20439;-84
2020/12/22 09:28:20;;;;;;;1.50;1.30;;;16.20;99.90;;;;;;5093621;28;20444;-84
2020/12/22 09:30:46;;;;;;;2.10;1.37;;;16.10;99.90;;;;;;5093725;28;20446;-84
2020/12/22 09:33:12;;;;;;;2.53;1.60;;;16.20;99.90;;;;;;5093304;28;20460;-82
2020/12/22 09:35:39;;;;;;;2.83;1.57;;;16.10;99.90;;;;;;5093481;28;20483;-83
2020/12/22 09:38:06;;;;;;;1.53;1.00;;;16.10;99.90;;;;;;5093470;28;20444;-83
2020/12/22 09:40:32;;;;;;;2.47;1.50;;;16.20;99.90;;;;;;5093861;28;20451;-82
2020/12/22 09:42:58;;;;;;;3.60;1.47;;;16.10;99.90;;;;;;5093484;28;20452;-83
2020/12/22 09:45:24;;;;;;;2.43;2.23;;;16.10;99.90;;;;;;5093473;28;20444;-84
2020/12/22 09:47:50;;;;;;;3.30;1.80;;;16.00;99.90;;;;;;5093458;28;20439;-82
2020/12/22 09:50:18;;;;;;;1.80;1.40;;;16.00;99.90;;;;;;5093253;28;20927;-82
2020/12/22 09:52:44;;;;;;;3.17;1.60;;;16.00;99.90;;;;;;5093261;28;20529;-82
2020/12/22 09:55:11;;;;;;;3.70;1.60;;;15.90;99.90;;;;;;5093173;28;20919;-82
2020/12/22 09:57:37;;;;;;;4.83;1.63;;;16.20;99.90;;;;;;5093128;28;20816;-82
2020/12/22 10:00:04;;;;;;;3.53;1.63;;;16.20;99.90;;;;;;5093513;28;20465;-81
2020/12/22 10:02:30;;;;;;;1.93;1.23;;;16.40;99.90;;;;;;5093216;28;20474;-82
2020/12/22 10:04:57;;;;;;;1.87;1.40;;;16.20;99.90;;;;;;5093305;28;20436;-82
2020/12/22 10:07:23;;;;;;;2.33;1.50;;;16.40;99.90;;;;;;5093366;28;20443;-83
2020/12/22 10:09:49;;;;;;;1.70;1.20;;;16.50;99.90;;;;;;5093187;28;20473;-83
2020/12/22 10:12:16;;;;;;;2.10;1.30;;;16.50;99.90;;;;;;5093154;28;20817;-82
2020/12/22 10:14:42;;;;;;;2.37;1.23;;;16.40;99.90;;;;;;5093194;28;20475;-83
2020/12/22 10:17:08;;;;;;;2.50;1.40;;;16.40;99.90;;;;;;5093128;28;20443;-82
2020/12/22 10:19:35;;;;;;;1.77;1.30;;;16.40;99.90;;;;;;5092982;28;20439;-83
2020/12/22 10:22:01;;;;;;;2.57;1.63;;;16.40;99.90;;;;;;5092969;28;20489;-83
2020/12/22 10:24:27;;;;;;;4.07;1.30;;;16.50;99.90;;;;;;5093003;28;20545;-82
2020/12/22 10:26:53;;;;;;;2.23;1.53;;;16.40;99.90;;;;;;5092875;28;20436;-82
2020/12/22 10:29:20;;;;;;;1.40;1.20;;;16.40;99.90;;;;;;5092931;28;20861;-83
2020/12/22 10:31:46;;;;;;;2.20;1.47;;;16.40;99.90;;;;;;5092703;28;20974;-81
2020/12/22 10:34:12;;;;;;;2.53;1.50;;;16.60;99.90;;;;;;5093768;28;20439;-83
2020/12/22 10:36:39;;;;;;;1.50;1.30;;;16.50;99.90;;;;;;5096780;28;20950;-83
2020/12/22 10:39:05;;;;;;;4.50;1.27;;;16.60;99.90;;;;;;5096845;28;20446;-83
2020/12/22 10:41:34;;;;;;;2.03;1.10;;;16.50;99.90;;;;;;5096903;28;20443;-82
2020/12/22 10:44:01;;;;;;;1.80;1.70;;;16.30;99.90;;;;;;5096532;28;20509;-83
2020/12/22 10:46:28;;;;;;;1.27;1.10;;;16.30;99.90;;;;;;5096551;28;20435;-82
2020/12/22 10:48:54;;;;;;;2.10;1.30;;;16.40;99.90;;;;;;5096445;28;20431;-82
2020/12/22 10:51:20;;;;;;;2.90;1.10;;;16.50;99.90;;;;;;5096338;28;20435;-83
2020/12/22 10:53:46;;;;;;;1.40;1.10;;;16.40;99.90;;;;;;5096319;28;20481;-83
2020/12/22 10:56:16;;;;;;;1.40;1.17;;;16.20;99.90;;;;;;5096252;28;20483;-83
2020/12/22 10:58:42;;;;;;;3.10;1.13;;;16.20;99.90;;;;;;5096251;28;20988;-83
2020/12/22 11:01:09;;;;;;;1.20;1.10;;;16.10;99.90;;;;;;5096068;28;20466;-82
2020/12/22 11:03:36;;;;;;;2.70;1.57;;;16.30;99.90;;;;;;5096360;28;20927;-83
2020/12/22 11:06:06;;;;;;;2.40;1.63;;;16.20;99.90;;;;;;5096287;28;20952;-83
2020/12/22 11:08:33;;;;;;;2.13;1.30;;;16.10;99.90;;;;;;5096193;28;20473;-83
2020/12/22 11:10:59;;;;;;;4.20;1.40;;;16.30;99.90;;;;;;5096297;28;20493;-83
2020/12/22 11:13:25;;;;;;;2.83;1.57;;;16.40;99.90;;;;;;5095748;28;20945;-83
2020/12/22 11:15:51;;;;;;;2.93;1.20;;;16.40;99.90;;;;;;5095876;28;20479;-83
2020/12/22 11:18:18;;;;;;;1.73;1.10;;;16.20;99.90;;;;;;5095820;28;20797;-82
2020/12/22 11:20:45;;;;;;;3.63;1.30;;;16.30;99.90;;;;;;5095919;28;20493;-83
2020/12/22 11:23:11;;;;;;;2.50;1.60;;;16.50;99.90;;;;;;5095853;28;20497;-82
2020/12/22 11:25:37;;;;;;;2.17;1.60;;;16.50;99.90;;;;;;5095724;28;20451;-82
2020/12/22 11:28:04;;;;;;;2.60;1.10;;;16.30;99.90;;;;;;5095654;28;20447;-83
2020/12/22 11:30:30;;;;;;;2.63;1.20;;;16.30;99.90;;;;;;5095712;28;20455;-82
2020/12/22 11:32:56;;;;;;;1.80;1.30;;;16.30;99.90;;;;;;5095487;28;20456;-83
2020/12/22 11:35:22;;;;;;;1.50;1.23;;;16.30;99.90;;;;;;5095539;28;20529;-82
2020/12/22 11:37:49;;;;;;;1.40;1.20;;;16.50;99.90;;;;;;5095636;28;20444;-82
2020/12/22 11:40:16;;;;;;;2.80;1.20;;;16.60;99.90;;;;;;5095535;28;20447;-83
2020/12/22 11:42:42;;;;;;;1.73;1.10;;;16.70;99.90;;;;;;5095473;28;20436;-82
2020/12/22 11:45:08;;;;;;;1.87;1.50;;;16.70;99.90;;;;;;5095429;28;20851;-82
2020/12/22 11:47:35;;;;;;;5.07;1.27;;;16.60;99.90;;;;;;5095449;28;20440;-83
2020/12/22 11:50:01;;;;;;;4.53;1.30;;;16.50;99.90;;;;;;5095353;28;20789;-80
2020/12/22 11:52:28;;;;;;;2.07;1.10;;;16.60;99.90;;;;;;5095022;28;20446;-80
2020/12/22 11:54:55;;;;;;;1.50;1.10;;;16.60;99.90;;;;;;5095252;28;20861;-80
2020/12/22 11:57:21;;;;;;;2.67;1.50;;;16.50;99.90;;;;;;5094937;28;20474;-83
2020/12/22 11:59:47;;;;;;;2.00;1.50;;;16.60;99.90;;;;;;5095375;28;20448;-81
2020/12/22 12:02:13;;;;;;;2.43;1.37;;;16.70;99.90;;;;;;5094968;28;20509;-82
2020/12/22 12:04:39;;;;;;;1.90;1.10;;;16.70;99.90;;;;;;5095003;28;20501;-81
2020/12/22 12:07:05;;;;;;;2.07;1.60;;;16.70;99.90;;;;;;5094959;28;20436;-81
2020/12/22 12:09:32;;;;;;;2.10;1.90;;;16.80;99.90;;;;;;5094917;28;20436;-81
2020/12/22 12:11:59;;;;;;;3.30;1.50;;;16.60;99.90;;;;;;5094699;28;20448;-81
2020/12/22 12:14:25;;;;;;;2.50;1.40;;;16.50;99.90;;;;;;5094811;28;20480;-80
2020/12/22 12:16:52;;;;;;;10.13;1.87;;;16.60;99.90;;;;;;5094778;28;20497;-81
2020/12/22 12:19:19;;;;;;;1.43;1.33;;;16.60;99.90;;;;;;5094763;28;20443;-80
2020/12/22 12:21:45;;;;;;;1.47;1.20;;;16.60;99.90;;;;;;5094630;28;20451;-80
2020/12/22 12:24:12;;;;;;;2.17;1.73;;;16.70;99.90;;;;;;5094310;28;20489;-81
2020/12/22 12:26:38;;;;;;;2.20;1.57;;;16.60;99.90;;;;;;5094639;28;20446;-81
2020/12/22 12:29:06;;;;;;;1.50;1.30;;;16.50;99.90;;;;;;5094464;28;20444;-81
2020/12/22 12:31:33;;;;;;;2.20;2.00;;;16.60;99.90;;;;;;5094421;28;20552;-81
2020/12/22 12:34:00;;;;;;;3.73;1.50;;;16.70;99.90;;;;;;5094345;28;21012;-82
2020/12/22 12:36:27;;;;;;;1.70;1.30;;;16.80;99.90;;;;;;5094346;28;20832;-81
2020/12/22 12:38:53;;;;;;;1.60;1.30;;;16.80;99.90;;;;;;5094281;28;20436;-81
2020/12/22 12:41:20;;;;;;;4.10;1.70;;;16.80;99.90;;;;;;5094380;28;20432;-81
2020/12/22 12:43:47;;;;;;;2.30;1.57;;;16.80;99.90;;;;;;5094417;28;20432;-81
2020/12/22 12:46:15;;;;;;;1.90;1.37;;;16.60;99.90;;;;;;5094137;28;20938;-81
2020/12/22 12:48:42;;;;;;;1.73;1.20;;;16.60;99.90;;;;;;5093891;28;20539;-81